Date,TemperatureHighF,TemperatureAvgF,TemperatureLowF,DewpointHighF,DewpointAvgF,DewpointLowF,HumidityHigh,HumidityAvg,HumidityLow,PressureMaxIn,PressureMinIn,WindSpeedMaxMPH,WindSpeedAvgMPH,GustSpeedMaxMPH,PrecipitationSumIn
2013-10-1,68.6,56.6,46.3,56.0,50.6,46.0,98,82,58,29.97,29.85,8,2,14,0.00
2013-10-2,69.7,60.8,50.6,59.0,54.1,46.0,97,79,63,29.94,29.85,12,4,18,0.00
2013-10-3,70.3,57.5,44.5,53.0,41.9,28.0,94,61,23,30.06,29.94,9,2,24,0.00
2013-10-4,71.2,62.6,57.5,63.0,58.7,49.0,98,87,72,30.00,29.89,11,2,15,0.18
2013-10-5,68.7,61.2,58.3,63.0,59.9,58.0,99,95,78,29.99,29.93,5,1,8,0.38
2013-10-6,60.1,57.5,54.9,60.0,57.4,55.0,100,99,98,30.00,29.95,12,4,16,0.01
2013-10-7,64.0,56.0,45.4,64.0,52.4,-99.9,100,93,80,29.95,29.58,11,-18,30,0.70
2013-10-8,56.9,47.0,38.8,43.0,39.7,37.0,94,77,52,30.31,29.87,12,4,20,1.02
2013-10-9,57.7,45.8,37.8,42.0,37.6,33.0,93,75,43,30.41,30.30,5,1,12,0.00
2013-10-10,56.8,47.7,38.6,40.0,31.4,21.0,96,58,29,30.29,30.13,5,1,9,0.00
2013-10-11,66.7,54.4,45.3,52.0,38.9,22.0,83,57,35,30.12,30.01,5,1,10,0.00
2013-10-12,65.6,53.4,43.1,52.0,45.5,33.0,95,76,60,30.25,30.08,7,2,16,0.00
2013-10-13,61.9,50.7,42.8,50.0,46.2,42.0,97,85,62,30.32,30.25,10,2,14,0.00
2013-10-14,63.9,51.7,41.1,51.0,45.5,40.0,98,81,53,30.28,30.17,6,2,9,0.00
2013-10-15,62.9,54.9,48.6,55.0,51.1,44.0,97,87,69,30.20,30.03,8,2,13,0.00
2013-10-16,59.0,52.7,45.1,52.0,47.2,38.0,93,82,63,30.04,29.81,7,2,14,0.00
2013-10-17,67.1,57.7,50.5,56.0,50.1,38.0,97,79,36,29.81,29.52,10,3,17,0.05
2013-10-18,57.2,49.7,42.0,57.0,42.2,36.0,98,77,49,29.88,29.52,13,4,22,0.48
2013-10-19,56.6,47.1,39.8,45.0,38.8,35.0,95,74,49,29.90,29.65,11,3,18,0.02
2013-10-20,50.8,43.2,33.9,44.0,34.0,30.0,93,72,51,29.98,29.64,16,4,20,0.02
2013-10-21,58.8,48.0,37.7,39.0,35.9,33.0,83,64,45,30.06,29.86,10,3,22,0.00
2013-10-22,54.8,45.7,33.3,43.0,38.2,29.0,86,75,60,29.86,29.66,16,2,17,0.23
2013-10-23,44.8,35.5,28.8,33.0,30.1,27.0,94,82,57,29.73,29.57,8,1,12,0.01
2013-10-24,41.8,34.3,26.2,32.0,26.1,23.0,95,74,49,29.87,29.68,15,3,17,0.01
2013-10-25,40.6,33.3,29.0,30.0,28.4,26.0,93,82,64,30.13,29.88,10,2,18,0.00
2013-10-26,45.2,37.4,29.0,30.0,26.0,23.0,92,65,44,30.12,29.78,14,4,23,0.00
2013-10-27,41.9,36.8,30.4,31.0,25.7,-99.9,86,69,56,30.03,29.75,10,-18,16,0.00
2013-10-28,46.6,36.3,27.7,34.0,29.3,24.0,86,76,59,30.29,30.02,10,2,17,0.00
2013-10-29,41.9,31.4,26.2,26.0,22.4,19.0,86,71,41,30.37,30.28,10,1,10,0.00
2013-10-30,52.3,38.5,31.1,42.0,30.8,-99.9,98,81,61,30.29,30.14,7,-30,11,0.01
2013-10-31,54.9,46.9,36.8,54.0,46.1,36.0,98,97,92,30.17,29.64,13,2,25,0.36